createdAt,value
2023-05-19T00:00:53.450Z,418.1538
2023-05-19T00:01:55.244Z,421.6154
2023-05-19T00:02:57.081Z,421.6154
2023-05-19T00:03:58.616Z,412.6923
2023-05-19T00:05:00.394Z,410.6154
2023-05-19T00:06:02.161Z,417.3077
2023-05-19T00:07:03.814Z,427.3846
2023-05-19T00:08:05.533Z,422.6154
2023-05-19T00:09:07.275Z,422.3846
2023-05-19T00:10:09.004Z,419.3846
2023-05-19T00:11:10.729Z,412.0000
2023-05-19T00:12:12.420Z,418.6923
2023-05-19T00:13:14.181Z,417.4615
2023-05-19T00:14:15.871Z,425.3077
2023-05-19T00:15:17.618Z,432.0769
2023-05-19T00:16:19.429Z,422.0769
2023-05-19T00:17:21.048Z,433.6154
2023-05-19T00:18:22.861Z,428.5385
2023-05-19T00:19:25.026Z,425.1538
2023-05-19T00:20:26.239Z,428.3846
2023-05-19T00:21:27.974Z,425.7692
2023-05-19T00:22:29.685Z,433.1538
2023-05-19T00:23:31.417Z,416.6154
2023-05-19T00:24:33.152Z,427.8462
2023-05-19T00:25:34.873Z,420.5385
2023-05-19T00:26:36.583Z,427.0000
2023-05-19T00:27:38.349Z,428.0000
2023-05-19T00:28:40.093Z,417.3077
2023-05-19T00:29:41.780Z,412.4615
2023-05-19T00:30:43.518Z,415.8462
2023-05-19T00:31:45.292Z,425.4615
2023-05-19T00:32:46.970Z,412.6154
2023-05-19T00:33:48.705Z,420.0769
2023-05-19T00:34:50.413Z,420.0769
2023-05-19T00:35:52.143Z,422.3077
2023-05-19T00:36:53.849Z,420.2308
2023-05-19T00:37:55.613Z,411.9231
2023-05-19T00:38:57.320Z,411.9231
2023-05-19T00:39:59.043Z,416.0000
2023-05-19T00:41:00.770Z,416.3077
2023-05-19T00:42:02.475Z,408.9231
2023-05-19T00:43:04.204Z,410.6154
2023-05-19T00:44:05.964Z,413.6923
2023-05-19T00:45:07.684Z,415.3846
2023-05-19T00:46:09.412Z,420.0000
2023-05-19T00:47:11.142Z,426.4615
2023-05-19T00:48:12.853Z,419.3846
2023-05-19T00:49:14.570Z,425.0769
2023-05-19T00:50:16.312Z,415.2308
2023-05-19T00:51:18.033Z,415.3077
2023-05-19T00:52:19.740Z,415.0769
2023-05-19T00:53:21.480Z,418.5385
2023-05-19T00:54:23.200Z,408.4615
2023-05-19T00:55:24.930Z,412.3846
2023-05-19T00:56:26.663Z,416.7692
2023-05-19T00:57:28.370Z,412.0769
2023-05-19T00:58:30.119Z,419.6154
2023-05-19T00:59:31.851Z,421.4615
2023-05-19T01:00:33.870Z,427.3846
2023-05-19T01:01:35.381Z,420.9231
2023-05-19T01:02:37.060Z,417.0000
2023-05-19T01:03:38.793Z,413.5385
2023-05-19T01:04:40.470Z,413.6154
2023-05-19T01:05:42.200Z,412.3846
2023-05-19T01:06:43.917Z,430.3077
2023-05-19T01:07:45.650Z,416.0769
2023-05-19T01:08:47.361Z,419.1538
2023-05-19T01:09:49.101Z,418.8462
2023-05-19T01:10:50.825Z,426.5385
2023-05-19T01:11:52.545Z,433.3077
2023-05-19T01:12:54.259Z,427.1538
2023-05-19T01:13:56.015Z,429.7692
2023-05-19T01:14:57.746Z,418.6154
2023-05-19T01:15:59.471Z,416.1538
2023-05-19T01:17:01.189Z,409.7692
2023-05-19T01:18:02.952Z,417.9231
2023-05-19T01:19:04.647Z,425.4615
2023-05-19T01:20:06.427Z,431.6923
2023-05-19T01:21:08.097Z,424.6923
2023-05-19T01:22:09.798Z,429.4615
2023-05-19T01:23:11.528Z,421.8462
2023-05-19T01:24:13.274Z,421.0769
2023-05-19T01:25:15.016Z,426.8462
2023-05-19T01:26:16.724Z,421.1538
2023-05-19T01:27:18.430Z,418.2308
2023-05-19T01:28:20.168Z,419.9231
2023-05-19T01:29:21.873Z,419.2308
2023-05-19T01:30:23.657Z,420.1538
2023-05-19T01:31:25.358Z,428.3077
2023-05-19T01:32:27.135Z,409.9231
2023-05-19T01:33:28.788Z,412.6154
2023-05-19T01:34:30.512Z,411.6923
2023-05-19T01:35:32.226Z,422.1538
2023-05-19T01:36:33.963Z,414.4615
2023-05-19T01:37:35.668Z,409.7692
2023-05-19T01:38:37.423Z,425.3846
2023-05-19T01:39:39.111Z,410.0769
2023-05-19T01:40:40.880Z,423.7692
2023-05-19T01:41:42.602Z,416.2308
2023-05-19T01:42:44.296Z,420.6923
2023-05-19T01:43:46.049Z,416.2308
2023-05-19T01:44:47.767Z,424.0769
2023-05-19T01:45:49.525Z,418.5385
2023-05-19T01:46:51.198Z,410.7692
2023-05-19T01:47:52.970Z,418.5385
2023-05-19T01:48:54.677Z,417.1538
2023-05-19T01:49:56.384Z,414.1538
2023-05-19T01:50:58.145Z,420.4615
2023-05-19T01:51:59.830Z,406.3077
2023-05-19T01:53:01.564Z,409.6154
2023-05-19T01:54:03.317Z,417.6923
2023-05-19T01:55:05.026Z,421.3077
2023-05-19T01:56:06.897Z,411.0769
2023-05-19T01:57:08.490Z,408.6154
2023-05-19T01:58:10.240Z,415.3077
2023-05-19T01:59:11.924Z,416.0000
2023-05-19T02:00:13.671Z,408.9231
2023-05-19T02:01:15.410Z,410.3846
2023-05-19T02:02:17.121Z,412.9231
2023-05-19T02:03:18.820Z,412.0000
2023-05-19T02:04:20.590Z,415.8462
2023-05-19T02:05:22.292Z,413.7692
2023-05-19T02:06:24.048Z,412.4615
2023-05-19T02:07:25.733Z,415.3846
2023-05-19T02:08:27.474Z,415.4615
2023-05-19T02:09:29.189Z,424.8462
2023-05-19T02:10:31.096Z,418.7692
2023-05-19T02:11:32.671Z,412.6154
2023-05-19T02:12:34.350Z,415.3077
2023-05-19T02:13:36.107Z,425.1538
2023-05-19T02:14:37.798Z,417.3846
2023-05-19T02:15:39.587Z,417.2308
2023-05-19T02:16:41.262Z,415.5385
2023-05-19T02:17:42.989Z,409.6923
2023-05-19T02:18:44.710Z,414.0769
2023-05-19T02:19:46.425Z,425.6154
2023-05-19T02:20:48.161Z,415.8462
2023-05-19T02:21:49.899Z,420.8462
2023-05-19T02:22:51.592Z,420.3077
2023-05-19T02:23:53.334Z,424.0769
2023-05-19T02:24:55.034Z,413.2308
2023-05-19T02:25:56.766Z,408.7692
2023-05-19T02:26:58.502Z,422.9231
2023-05-19T02:28:00.213Z,422.7692
2023-05-19T02:29:01.975Z,417.4615
2023-05-19T02:30:03.663Z,410.2308
2023-05-19T02:31:05.405Z,417.4615
2023-05-19T02:32:07.185Z,419.6923
2023-05-19T02:33:08.900Z,415.6923
2023-05-19T02:34:10.564Z,423.4615
2023-05-19T02:35:12.314Z,410.0000
2023-05-19T02:36:14.020Z,420.2308
2023-05-19T02:37:15.782Z,417.2308
2023-05-19T02:38:17.483Z,412.5385
2023-05-19T02:39:19.203Z,420.4615
2023-05-19T02:40:20.930Z,411.3077
2023-05-19T02:41:22.655Z,406.1538
2023-05-19T02:42:24.403Z,418.5385
2023-05-19T02:43:26.102Z,418.8462
2023-05-19T02:44:27.810Z,410.0769
2023-05-19T02:45:29.535Z,405.0769
2023-05-19T02:46:31.324Z,406.0000
2023-05-19T02:47:34.717Z,407.6923
2023-05-19T02:48:34.707Z,410.1538
2023-05-19T02:49:36.487Z,412.0769
2023-05-19T02:50:38.174Z,412.0769
2023-05-19T02:51:39.907Z,408.3846
2023-05-19T02:52:41.610Z,424.3846
2023-05-19T02:53:43.338Z,412.1538
2023-05-19T02:54:45.092Z,409.7692
2023-05-19T02:55:46.785Z,419.3077
2023-05-19T02:56:48.506Z,412.7692
2023-05-19T02:57:50.252Z,419.6154
2023-05-19T02:58:51.958Z,413.0769
2023-05-19T02:59:53.680Z,411.3846
2023-05-19T03:00:55.430Z,412.3077
2023-05-19T03:01:57.188Z,412.0769
2023-05-19T03:02:58.905Z,409.1538
2023-05-19T03:04:00.729Z,411.0000
2023-05-19T03:05:02.319Z,406.8462
2023-05-19T03:06:04.020Z,407.4615
2023-05-19T03:07:05.748Z,407.8462
2023-05-19T03:08:07.495Z,417.9231
2023-05-19T03:09:09.191Z,426.5385
2023-05-19T03:10:10.912Z,421.6154
2023-05-19T03:11:12.652Z,414.0000
2023-05-19T03:12:14.359Z,423.9231
2023-05-19T03:13:16.111Z,424.3077
2023-05-19T03:14:17.821Z,427.9231
2023-05-19T03:15:19.522Z,435.0000
2023-05-19T03:16:21.331Z,439.9231
2023-05-19T03:17:23.062Z,434.3077
2023-05-19T03:18:24.838Z,428.2308
2023-05-19T03:19:26.662Z,424.4615
2023-05-19T03:20:28.145Z,426.0769
2023-05-19T03:21:29.872Z,426.3846
2023-05-19T03:22:31.622Z,419.5385
2023-05-19T03:23:33.345Z,419.5385
2023-05-19T03:24:35.041Z,419.7692
2023-05-19T03:25:36.795Z,422.9231
2023-05-19T03:26:38.496Z,431.4615
2023-05-19T03:27:40.244Z,423.0000
2023-05-19T03:28:41.972Z,424.4615
2023-05-19T03:29:43.688Z,428.6154
2023-05-19T03:30:45.405Z,426.6154
2023-05-19T03:31:47.153Z,425.6154
2023-05-19T03:32:48.985Z,436.8462
2023-05-19T03:33:50.598Z,428.2308
2023-05-19T03:34:52.318Z,427.0000
2023-05-19T03:35:54.032Z,436.1538
2023-05-19T03:36:55.781Z,429.3077
2023-05-19T03:37:57.473Z,437.2308
2023-05-19T03:38:59.196Z,430.7692
2023-05-19T03:40:00.945Z,428.6154
2023-05-19T03:41:02.673Z,426.0769
2023-05-19T03:42:04.399Z,424.1538
2023-05-19T03:43:06.121Z,420.0769
2023-05-19T03:44:07.855Z,425.4615
2023-05-19T03:45:09.561Z,410.6154
2023-05-19T03:46:11.356Z,433.4615
2023-05-19T03:47:13.032Z,424.1538
2023-05-19T03:48:14.749Z,420.5385
2023-05-19T03:49:16.494Z,420.3077
2023-05-19T03:50:18.207Z,425.5385
2023-05-19T03:51:19.915Z,431.6923
2023-05-19T03:52:21.631Z,428.4615
2023-05-19T03:53:23.490Z,434.6923
2023-05-19T03:54:25.217Z,437.5385
2023-05-19T03:55:26.913Z,429.1538
2023-05-19T03:56:28.670Z,425.3846
2023-05-19T03:57:30.380Z,415.5385
2023-05-19T03:58:32.077Z,418.3846
2023-05-19T03:59:33.831Z,417.7692
2023-05-19T04:00:35.773Z,426.3846
2023-05-19T04:01:37.296Z,427.1538
2023-05-19T04:02:39.098Z,428.4615
2023-05-19T04:03:40.809Z,429.3077
2023-05-19T04:04:42.512Z,433.8462
2023-05-19T04:05:44.216Z,443.0769
2023-05-19T04:06:45.930Z,429.0769
2023-05-19T04:07:47.626Z,425.7692
2023-05-19T04:08:49.357Z,430.6154
2023-05-19T04:09:51.088Z,438.7692
2023-05-19T04:10:52.833Z,425.6923
2023-05-19T04:11:54.569Z,429.6923
2023-05-19T04:12:56.264Z,426.2308
2023-05-19T04:13:58.014Z,422.7692
2023-05-19T04:14:59.758Z,418.1538
2023-05-19T04:16:01.481Z,430.6154
2023-05-19T04:17:03.198Z,420.1538
2023-05-19T04:18:04.944Z,427.0769
2023-05-19T04:19:06.719Z,421.8462
2023-05-19T04:20:08.371Z,421.9231
2023-05-19T04:21:10.113Z,422.0000
2023-05-19T04:22:11.810Z,423.0000
2023-05-19T04:23:13.548Z,429.1538
2023-05-19T04:24:15.263Z,420.7692
2023-05-19T04:25:17.058Z,425.1538
2023-05-19T04:26:18.719Z,428.0769
2023-05-19T04:27:20.467Z,427.8462
2023-05-19T04:28:22.184Z,435.0769
2023-05-19T04:29:23.917Z,427.3077
2023-05-19T04:30:25.634Z,419.0769
2023-05-19T04:31:27.353Z,430.4615
2023-05-19T04:32:29.123Z,442.4615
2023-05-19T04:33:30.822Z,433.6923
2023-05-19T04:34:32.559Z,438.3077
2023-05-19T04:35:34.292Z,442.4615
2023-05-19T04:36:35.973Z,433.9231
2023-05-19T04:37:37.694Z,431.6923
2023-05-19T04:38:39.427Z,436.5385
2023-05-19T04:39:41.180Z,432.6923
2023-05-19T04:40:42.911Z,432.5385
2023-05-19T04:41:44.623Z,446.4615
2023-05-19T04:42:46.327Z,446.7692
2023-05-19T04:43:48.080Z,438.3077
2023-05-19T04:44:49.782Z,436.7692
2023-05-19T04:45:51.553Z,435.3077
2023-05-19T04:46:53.306Z,437.0769
2023-05-19T04:47:55.009Z,441.3077
2023-05-19T04:48:56.725Z,430.0000
2023-05-19T04:49:58.411Z,439.3077
2023-05-19T04:51:00.154Z,445.6923
2023-05-19T04:52:01.868Z,447.3846
2023-05-19T04:53:03.622Z,450.8462
2023-05-19T04:54:05.338Z,451.9231
2023-05-19T04:55:07.049Z,445.9231
2023-05-19T04:56:08.783Z,445.9231
2023-05-19T04:57:10.520Z,443.6154
2023-05-19T04:58:12.253Z,445.6154
2023-05-19T04:59:13.972Z,445.0769
2023-05-19T05:00:15.699Z,441.4615
2023-05-19T05:01:17.444Z,437.0769
2023-05-19T05:02:19.224Z,436.7692
2023-05-19T05:03:20.972Z,437.5385
2023-05-19T05:04:22.657Z,436.4615
2023-05-19T05:05:24.337Z,431.6923
2023-05-19T05:06:26.037Z,433.7692
2023-05-19T05:07:28.548Z,436.6923
2023-05-19T05:08:29.483Z,435.0769
2023-05-19T05:09:31.224Z,433.0769
2023-05-19T05:10:33.108Z,429.6154
2023-05-19T05:11:34.682Z,436.0000
2023-05-19T05:12:36.410Z,436.2308
2023-05-19T05:13:38.130Z,434.1538
2023-05-19T05:14:39.828Z,434.1538
2023-05-19T05:15:41.555Z,440.1538
2023-05-19T05:16:43.491Z,435.4615
2023-05-19T05:17:45.056Z,442.6154
2023-05-19T05:18:46.770Z,434.1538
2023-05-19T05:19:48.487Z,432.6154
2023-05-19T05:20:50.214Z,432.7692
2023-05-19T05:21:52.328Z,423.0769
2023-05-19T05:22:53.646Z,432.9231
2023-05-19T05:23:55.373Z,432.6923
2023-05-19T05:24:57.113Z,427.9231
2023-05-19T05:25:58.841Z,426.3077
2023-05-19T05:27:00.602Z,434.4615
2023-05-19T05:28:02.270Z,435.3077
2023-05-19T05:29:03.998Z,438.1538
2023-05-19T05:30:05.714Z,432.3077
2023-05-19T05:31:07.518Z,436.8462
2023-05-19T05:32:09.256Z,431.7692
2023-05-19T05:33:10.955Z,439.6923
2023-05-19T05:34:12.619Z,438.2308
2023-05-19T05:35:14.350Z,439.5385
2023-05-19T05:36:16.096Z,441.3077
2023-05-19T05:37:17.835Z,434.5385
2023-05-19T05:38:19.547Z,422.6923
2023-05-19T05:39:21.266Z,413.6923
2023-05-19T05:40:22.978Z,423.1538
2023-05-19T05:41:24.725Z,417.6923
2023-05-19T05:42:28.932Z,411.6154
2023-05-19T05:43:28.172Z,430.8462
2023-05-19T05:44:29.894Z,426.3077
2023-05-19T05:45:31.913Z,423.6923
2023-05-19T05:46:33.478Z,423.2308
2023-05-19T05:47:35.096Z,417.7692
2023-05-19T05:48:36.793Z,432.0000
2023-05-19T05:49:38.536Z,428.1538
2023-05-19T05:50:40.240Z,428.0769
2023-05-19T05:51:46.417Z,422.3846
2023-05-19T05:52:43.706Z,418.0769
2023-05-19T05:53:45.441Z,416.5385
2023-05-19T05:54:47.144Z,416.9231
2023-05-19T05:55:48.867Z,414.7692
2023-05-19T05:56:50.600Z,411.4615
2023-05-19T05:57:52.350Z,410.6923
2023-05-19T05:58:54.070Z,416.4615
2023-05-19T05:59:55.789Z,420.1538
2023-05-19T06:00:57.500Z,427.7692
2023-05-19T06:01:59.228Z,422.3077
2023-05-19T06:03:01.134Z,421.3846
2023-05-19T06:04:02.706Z,414.5385
2023-05-19T06:05:04.461Z,412.0769
2023-05-19T06:06:06.148Z,409.5385
2023-05-19T06:07:07.889Z,411.0769
2023-05-19T06:08:09.630Z,406.8462
2023-05-19T06:09:11.303Z,420.8462
2023-05-19T06:10:13.051Z,412.1538
2023-05-19T06:11:14.803Z,408.7692
2023-05-19T06:12:16.515Z,405.5385
2023-05-19T06:13:18.261Z,403.7692
2023-05-19T06:14:19.969Z,402.6923
2023-05-19T06:15:21.670Z,406.4615
2023-05-19T06:16:23.444Z,414.6154
2023-05-19T06:17:25.257Z,405.3846
2023-05-19T06:18:26.903Z,412.4615
2023-05-19T06:19:28.707Z,407.7692
2023-05-19T06:20:30.474Z,417.3077
2023-05-19T06:21:32.021Z,404.9231
2023-05-19T06:22:33.769Z,404.9231
2023-05-19T06:23:35.505Z,405.1538
2023-05-19T06:24:39.356Z,402.8462
2023-05-19T06:25:38.948Z,401.0769
2023-05-19T06:26:40.671Z,404.3077
2023-05-19T06:27:42.382Z,405.4615
2023-05-19T06:28:44.111Z,406.2308
2023-05-19T06:29:45.827Z,407.1538
2023-05-19T06:30:47.573Z,402.8462
2023-05-19T06:31:49.398Z,401.9231
2023-05-19T06:32:51.111Z,402.5385
2023-05-19T06:33:52.761Z,408.3077
2023-05-19T06:34:54.485Z,411.0769
2023-05-19T06:35:56.189Z,406.0769
2023-05-19T06:36:57.939Z,418.0000
2023-05-19T06:37:59.671Z,404.8462
2023-05-19T06:39:02.677Z,411.9231
2023-05-19T06:40:03.103Z,411.0000
2023-05-19T06:41:04.832Z,409.0769
2023-05-19T06:42:06.587Z,415.6154
2023-05-19T06:43:08.304Z,409.2308
2023-05-19T06:44:10.069Z,422.0000
2023-05-19T06:45:11.764Z,417.3077
2023-05-19T06:46:13.556Z,412.2308
2023-05-19T06:47:15.243Z,418.0769
2023-05-19T06:48:17.015Z,412.3077
2023-05-19T06:49:18.650Z,415.6923
2023-05-19T06:50:20.404Z,411.0769
2023-05-19T06:51:22.124Z,407.8462
2023-05-19T06:52:23.883Z,414.4615
2023-05-19T06:53:25.565Z,409.0000
2023-05-19T06:54:27.305Z,415.3077
2023-05-19T06:55:29.027Z,411.3846
2023-05-19T06:56:30.780Z,424.6154
2023-05-19T06:57:32.492Z,413.6154
2023-05-19T06:58:34.201Z,412.6154
2023-05-19T06:59:35.936Z,413.6923
2023-05-19T07:00:37.706Z,416.6923
2023-05-19T07:01:39.413Z,415.1538
2023-05-19T07:02:41.187Z,416.5385
2023-05-19T07:03:42.895Z,418.2308
2023-05-19T07:04:44.605Z,421.6154
2023-05-19T07:05:47.167Z,414.6923
2023-05-19T07:06:48.028Z,416.3077
2023-05-19T07:07:49.767Z,421.9231
2023-05-19T07:08:51.485Z,415.7692
2023-05-19T07:09:53.236Z,409.9231
2023-05-19T07:10:54.957Z,427.9231
2023-05-19T07:11:56.685Z,421.0769
2023-05-19T07:12:58.398Z,418.4615
2023-05-19T07:14:00.173Z,414.6154
2023-05-19T07:15:02.037Z,418.1538
2023-05-19T07:16:03.625Z,416.5385
2023-05-19T07:17:05.325Z,411.0000
2023-05-19T07:18:07.075Z,417.9231
2023-05-19T07:19:08.822Z,424.5385
2023-05-19T07:20:10.540Z,421.7692
2023-05-19T07:21:12.215Z,423.6923
2023-05-19T07:22:13.950Z,414.0000
2023-05-19T07:23:17.393Z,417.6154
2023-05-19T07:24:17.429Z,424.3077
2023-05-19T07:25:19.146Z,411.6923
2023-05-19T07:26:20.894Z,415.1538
2023-05-19T07:27:22.618Z,416.1538
2023-05-19T07:28:24.316Z,412.9231
2023-05-19T07:29:26.070Z,420.1538
2023-05-19T07:30:27.811Z,423.5385
2023-05-19T07:31:29.574Z,429.6923
2023-05-19T07:32:31.298Z,426.9231
2023-05-19T07:33:32.965Z,417.3846
2023-05-19T07:34:34.689Z,427.1538
2023-05-19T07:35:36.441Z,419.8462
2023-05-19T07:36:38.158Z,430.1538
2023-05-19T07:37:39.892Z,430.9231
2023-05-19T07:38:41.663Z,422.9231
2023-05-19T07:39:43.326Z,434.7692
2023-05-19T07:40:45.059Z,435.6923
2023-05-19T07:41:46.783Z,426.3846
2023-05-19T07:42:48.505Z,426.0769
2023-05-19T07:43:50.262Z,427.5385
2023-05-19T07:44:51.970Z,425.3846
2023-05-19T07:45:53.781Z,420.0000
2023-05-19T07:46:55.444Z,420.0000
2023-05-19T07:47:57.220Z,420.2308
2023-05-19T07:48:58.926Z,424.1538
2023-05-19T07:50:00.612Z,421.9231
2023-05-19T07:51:02.387Z,423.3077
2023-05-19T07:52:04.069Z,423.0769
2023-05-19T07:53:05.806Z,421.8462
2023-05-19T07:54:07.529Z,425.7692
2023-05-19T07:55:09.265Z,424.8462
2023-05-19T07:56:11.115Z,420.1538
2023-05-19T07:57:12.790Z,431.5385
2023-05-19T07:58:14.504Z,434.5385
2023-05-19T07:59:16.265Z,426.8462
2023-05-19T08:00:17.981Z,443.6923
2023-05-19T08:01:19.846Z,439.6154
2023-05-19T08:02:21.458Z,442.3077
2023-05-19T08:03:23.295Z,438.3077
2023-05-19T08:04:24.897Z,433.3846
2023-05-19T08:05:26.643Z,436.1538
2023-05-19T08:06:28.363Z,438.0769
2023-05-19T08:07:30.048Z,440.6923
2023-05-19T08:08:31.797Z,436.5385
2023-05-19T08:09:33.531Z,437.0000
2023-05-19T08:10:35.400Z,434.2308
2023-05-19T08:11:36.982Z,438.3846
2023-05-19T08:12:38.694Z,448.1538
2023-05-19T08:13:40.406Z,441.5385
2023-05-19T08:14:42.131Z,442.3077
2023-05-19T08:15:43.892Z,440.0769
2023-05-19T08:16:45.607Z,450.8462
2023-05-19T08:17:47.367Z,442.9231
2023-05-19T08:18:49.098Z,440.3846
2023-05-19T08:19:50.790Z,442.2308
2023-05-19T08:20:52.517Z,446.4615
2023-05-19T08:21:54.265Z,440.3077
2023-05-19T08:22:55.978Z,442.3846
2023-05-19T08:23:57.696Z,438.2308
2023-05-19T08:24:59.429Z,451.9231
2023-05-19T08:26:01.156Z,453.4615
2023-05-19T08:27:02.896Z,451.9231
2023-05-19T08:28:04.603Z,439.4615
2023-05-19T08:29:06.318Z,436.3846
2023-05-19T08:30:08.074Z,438.6923
2023-05-19T08:31:09.845Z,436.8462
2023-05-19T08:32:13.185Z,436.6923
2023-05-19T08:33:13.255Z,423.7692
2023-05-19T08:34:14.971Z,438.1538
2023-05-19T08:35:16.671Z,437.8462
2023-05-19T08:36:18.398Z,441.8462
2023-05-19T08:37:20.157Z,443.5385
2023-05-19T08:38:21.873Z,445.1538
2023-05-19T08:39:23.581Z,448.8462
2023-05-19T08:40:25.322Z,441.6154
2023-05-19T08:41:27.024Z,432.7692
2023-05-19T08:42:28.802Z,446.2308
2023-05-19T08:43:30.497Z,439.9231
2023-05-19T08:44:32.221Z,443.8462
2023-05-19T08:45:34.124Z,451.3077
2023-05-19T08:46:35.833Z,441.2308
2023-05-19T08:47:37.433Z,447.7692
2023-05-19T08:48:39.094Z,452.2308
2023-05-19T08:49:40.842Z,435.9231
2023-05-19T08:50:42.559Z,437.0000
2023-05-19T08:51:44.302Z,443.4615
2023-05-19T08:52:49.539Z,444.0000
2023-05-19T08:53:47.742Z,446.6923
2023-05-19T08:54:49.461Z,443.3846
2023-05-19T08:55:51.192Z,440.1538
2023-05-19T08:56:52.888Z,434.5385
2023-05-19T08:57:54.642Z,439.7692
2023-05-19T08:58:56.364Z,445.6923
2023-05-19T08:59:58.076Z,445.7692
2023-05-19T09:00:59.876Z,434.9231
2023-05-19T09:02:01.513Z,442.2308
2023-05-19T09:04:05.023Z,440.0769
2023-05-19T09:05:06.715Z,442.5385
2023-05-19T09:06:08.557Z,450.4615
2023-05-19T09:07:10.135Z,444.6923
2023-05-19T09:08:11.870Z,450.5385
2023-05-19T09:09:13.620Z,446.0769
2023-05-19T09:10:15.335Z,446.7692
2023-05-19T09:11:17.039Z,450.4615
2023-05-19T09:12:18.781Z,450.6154
2023-05-19T09:13:20.519Z,451.8462
2023-05-19T09:14:22.234Z,456.9231
2023-05-19T09:15:23.945Z,453.3846
2023-05-19T09:16:27.811Z,461.0769
2023-05-19T09:17:27.412Z,460.4615
2023-05-19T09:18:29.189Z,471.0000
2023-05-19T09:19:30.989Z,472.5385
2023-05-19T09:20:32.586Z,460.1538
2023-05-19T09:21:34.302Z,463.2308
2023-05-19T09:22:36.048Z,455.8462
2023-05-19T09:23:37.785Z,476.0769
2023-05-19T09:24:39.481Z,461.5385
2023-05-19T09:25:41.230Z,458.6154
2023-05-19T09:26:42.974Z,476.2308
2023-05-19T09:27:44.691Z,452.6923
2023-05-19T09:28:46.402Z,460.3077
2023-05-19T09:29:48.119Z,463.0000
2023-05-19T09:30:49.849Z,459.3077
2023-05-19T09:31:51.788Z,459.9231
2023-05-19T09:32:53.380Z,470.9231
2023-05-19T09:33:55.091Z,458.7692
2023-05-19T09:34:56.753Z,462.3846
2023-05-19T09:35:58.501Z,474.4615
2023-05-19T09:37:00.230Z,466.2308
2023-05-19T09:38:01.986Z,465.4615
2023-05-19T09:39:03.701Z,463.6154
2023-05-19T09:40:05.399Z,461.6923
2023-05-19T09:41:07.188Z,476.8462
2023-05-19T09:42:08.853Z,468.7692
2023-05-19T09:43:10.584Z,465.0769
2023-05-19T09:44:12.323Z,464.0769
2023-05-19T09:45:14.069Z,465.2308
2023-05-19T09:46:15.838Z,462.9231
2023-05-19T09:47:17.505Z,459.0000
2023-05-19T09:48:19.217Z,466.4615
2023-05-19T09:49:20.992Z,466.0769
2023-05-19T09:50:22.691Z,474.6923
2023-05-19T09:51:24.422Z,470.9231
2023-05-19T09:52:26.154Z,474.7692
2023-05-19T09:53:27.865Z,474.8462
2023-05-19T09:54:29.722Z,468.5385
2023-05-19T09:55:31.449Z,468.7692
2023-05-19T09:56:33.061Z,461.0000
2023-05-19T09:57:34.801Z,480.3077
2023-05-19T09:58:36.771Z,478.5385
2023-05-19T09:59:38.264Z,474.6154
2023-05-19T10:00:39.986Z,477.3077
2023-05-19T10:01:41.722Z,474.0000
2023-05-19T10:02:43.435Z,476.6154
2023-05-19T10:03:45.164Z,474.7692
2023-05-19T10:04:47.327Z,475.4615
2023-05-19T10:05:48.643Z,479.9231
2023-05-19T10:06:50.329Z,478.9231
2023-05-19T10:07:52.060Z,479.9231
2023-05-19T10:08:53.789Z,476.0769
2023-05-19T10:09:56.604Z,479.0000
2023-05-19T10:10:57.264Z,480.9231
2023-05-19T10:11:59.004Z,478.2308
2023-05-19T10:13:00.694Z,484.3846
2023-05-19T10:14:02.424Z,496.3846
2023-05-19T10:15:04.183Z,479.2308
2023-05-19T10:16:05.953Z,474.6154
2023-05-19T10:17:07.765Z,473.4615
2023-05-19T10:18:09.389Z,484.5385
2023-05-19T10:19:11.100Z,479.0769
2023-05-19T10:20:12.844Z,478.0769
2023-05-19T10:21:14.506Z,485.8462
2023-05-19T10:22:16.230Z,484.5385
2023-05-19T10:23:17.989Z,494.0769
2023-05-19T10:24:19.702Z,486.3846
2023-05-19T10:25:21.454Z,481.0000
2023-05-19T10:26:23.135Z,485.0000
2023-05-19T10:27:24.874Z,479.2308
2023-05-19T10:28:26.642Z,481.6154
2023-05-19T10:29:28.383Z,481.3846
2023-05-19T10:30:30.092Z,480.0000
2023-05-19T10:31:31.860Z,497.9231
2023-05-19T10:32:33.622Z,491.4615
2023-05-19T10:33:35.257Z,486.9231
2023-05-19T10:34:36.968Z,499.2308
2023-05-19T10:35:38.917Z,488.2308
2023-05-19T10:36:40.406Z,488.8462
2023-05-19T10:37:42.156Z,489.2308
2023-05-19T10:38:43.877Z,498.7692
2023-05-19T10:39:45.596Z,495.2308
2023-05-19T10:40:47.334Z,496.2308
2023-05-19T10:41:49.038Z,494.6923
2023-05-19T10:42:50.778Z,489.6923
2023-05-19T10:43:52.501Z,498.6923
2023-05-19T10:44:54.229Z,500.6923
2023-05-19T10:45:55.936Z,496.4615
2023-05-19T10:46:57.714Z,499.8462
2023-05-19T10:47:59.495Z,493.7692
2023-05-19T10:49:01.137Z,494.3077
2023-05-19T10:50:02.872Z,488.9231
2023-05-19T10:51:04.607Z,486.7692
2023-05-19T10:52:06.303Z,495.3077
2023-05-19T10:53:08.036Z,501.0000
2023-05-19T10:54:10.992Z,494.8462
2023-05-19T10:55:11.504Z,498.3846
2023-05-19T10:56:13.235Z,487.9231
2023-05-19T10:57:14.919Z,497.7692
2023-05-19T10:58:16.656Z,499.5385
2023-05-19T10:59:18.376Z,501.6923
2023-05-19T11:00:20.123Z,512.1539
2023-05-19T11:01:21.866Z,490.6154
2023-05-19T11:02:23.640Z,489.6154
2023-05-19T11:03:25.262Z,491.3846
2023-05-19T11:04:27.163Z,493.6923
2023-05-19T11:05:28.729Z,500.0769
2023-05-19T11:06:30.486Z,492.0769
2023-05-19T11:07:32.203Z,505.8462
2023-05-19T11:08:33.926Z,495.0000
2023-05-19T11:09:40.275Z,498.7692
2023-05-19T11:12:38.933Z,463.8333
2023-05-19T11:13:40.575Z,544.2308
2023-05-19T11:14:42.276Z,576.8461
2023-05-19T11:15:44.081Z,586.3077
2023-05-19T11:16:46.723Z,597.8461
2023-05-19T11:17:47.526Z,581.7692
2023-05-19T11:18:49.253Z,579.1539
2023-05-19T11:19:50.928Z,587.3077
2023-05-19T11:20:52.757Z,567.0769
2023-05-19T11:21:54.401Z,568.3077
2023-05-19T11:22:56.192Z,569.3846
2023-05-19T11:23:57.963Z,561.9231
2023-05-19T11:24:59.565Z,570.0769
2023-05-19T11:26:01.293Z,554.1539
2023-05-19T11:27:03.133Z,559.5385
2023-05-19T11:28:04.779Z,560.3077
2023-05-19T11:29:06.474Z,554.3846
2023-05-19T11:30:08.254Z,554.0000
2023-05-19T11:31:09.953Z,552.3846
2023-05-19T11:32:11.755Z,539.5385
2023-05-19T11:33:13.483Z,528.6154
2023-05-19T11:34:15.112Z,516.6923
2023-05-19T11:35:16.842Z,521.0769
2023-05-19T11:36:18.612Z,512.9231
2023-05-19T11:37:20.302Z,504.9231
2023-05-19T11:38:22.130Z,510.8462
2023-05-19T11:39:23.782Z,499.4615
2023-05-19T11:40:25.520Z,488.0000
2023-05-19T11:41:27.243Z,485.6154
2023-05-19T11:42:28.966Z,482.0769
2023-05-19T11:43:30.712Z,480.1538
2023-05-19T11:44:32.522Z,471.2308
2023-05-19T11:45:34.416Z,465.0769
2023-05-19T11:46:35.969Z,482.0769
2023-05-19T11:47:50.852Z,459.0769
2023-05-19T11:48:39.368Z,462.0000
2023-05-19T11:49:41.053Z,457.9231
2023-05-19T11:50:42.856Z,457.1538
2023-05-19T11:51:44.500Z,453.0769
2023-05-19T11:52:46.252Z,437.3077
2023-05-19T11:53:47.980Z,443.3846
2023-05-19T11:54:49.716Z,440.0000
2023-05-19T11:55:52.024Z,429.6154
2023-05-19T11:56:53.258Z,420.6923
2023-05-19T11:58:02.768Z,418.3846
2023-05-19T11:58:56.647Z,412.7692
2023-05-19T11:59:58.376Z,408.5385
2023-05-19T12:01:00.121Z,412.3077
2023-05-19T12:02:01.808Z,427.1538
2023-05-19T12:03:03.674Z,430.3846
2023-05-19T12:04:05.413Z,419.6154
2023-05-19T12:05:07.057Z,417.9231
2023-05-19T12:06:08.755Z,436.3077
2023-05-19T12:07:10.470Z,425.5385
2023-05-19T12:08:12.277Z,419.2308